PWSweather.com
Personal Weather Stations
Station Observations
ITROMSTR4
From Fagereng Towards West Sandnessundet, TromsoeNO 9013

From Fagereng Towards West SandnessundetTromsoeNO 9013

Lat: 69.644853, Lon: 18.908345

Elevation: 150

Station Type: WH-1080

http://www.hugooien.no/?go=weather

Latest ConditionsUpdated 2:10:01 AM GMT+01:01 Sunday, Oct 22, 2017
Currently Today's Max Today's Min Today's Average
Temperature 34.2°F1.2°C 36.1°F2.3°C 34.2°F1.2°C 35.6°F2.0°C
Dew Point 33.4°F0.8°C 35.1°F1.7°C 33.4°F0.8°C 34.5°F1.4°C
Winds Calm Calm Calm Calm - Calm Calm
Wind Gusts -- -- - -
Humidity 97% 97% 94% 96%
Pressure 29.04 in983.4 mb 29.06 in984.1 mb 29.03 in983.1 mb -
Precipitation - 7.81 in198.4 mm - -
Hour Temp Dew Point Humidity Winds Wind Gusts Pressure Precip Precip Rate Daily Precip Total
02:10 AM 34.2°F1.2°C 33.4°F0.8°C 97% Calm Calm -- 29.04 in983.4 mb 39.20 in995.7 mm 0.00 in0.0 mm 7.81 in198.4 mm
02:05 AM 34.3°F1.3°C 33.6°F0.9°C 97% Calm Calm -- 29.03 in983.1 mb 39.20 in995.7 mm 0.00 in0.0 mm 7.81 in198.4 mm
02:00 AM 34.7°F1.5°C 33.9°F1.1°C 97% Calm Calm -- 29.04 in983.4 mb 39.20 in995.7 mm 0.00 in0.0 mm 6.11 in155.2 mm
01:55 AM 35.2°F1.8°C 34.5°F1.4°C 97% Calm Calm -- 29.03 in983.1 mb 39.20 in995.7 mm 0.00 in0.0 mm 5.03 in127.8 mm
01:50 AM 35.6°F2.0°C 34.6°F1.4°C 96% Calm Calm -- 29.03 in983.1 mb 39.20 in995.7 mm 0.00 in0.0 mm 4.71 in119.6 mm
01:45 AM 35.6°F2.0°C 34.6°F1.4°C 96% Calm Calm -- 29.05 in983.7 mb 39.20 in995.7 mm 0.00 in0.0 mm 4.71 in119.6 mm
01:40 AM 35.4°F1.9°C 34.7°F1.5°C 97% Calm Calm -- 29.04 in983.4 mb 39.20 in995.7 mm 0.00 in0.0 mm 4.71 in119.6 mm
01:35 AM 35.4°F1.9°C 34.7°F1.5°C 97% Calm Calm -- 29.04 in983.4 mb 39.20 in995.7 mm 0.00 in0.0 mm 4.71 in119.6 mm
01:30 AM 35.4°F1.9°C 34.7°F1.5°C 97% Calm Calm -- 29.04 in983.4 mb 39.20 in995.7 mm 0.00 in0.0 mm 4.71 in119.6 mm
01:25 AM 35.2°F1.8°C 34.5°F1.4°C 97% Calm Calm -- 29.03 in983.1 mb 39.20 in995.7 mm 0.00 in0.0 mm 4.71 in119.6 mm
01:20 AM 35.2°F1.8°C 34.5°F1.4°C 97% Calm Calm -- 29.04 in983.4 mb 39.20 in995.7 mm 0.00 in0.0 mm 4.71 in119.6 mm
01:15 AM 35.4°F1.9°C 34.7°F1.5°C 97% Calm Calm -- 29.04 in983.4 mb 39.20 in995.7 mm 0.00 in0.0 mm 4.71 in119.6 mm
01:10 AM 35.8°F2.1°C 34.8°F1.6°C 96% Calm Calm -- 29.03 in983.1 mb 39.20 in995.7 mm 0.00 in0.0 mm 4.71 in119.6 mm
01:05 AM 35.8°F2.1°C 34.8°F1.6°C 96% Calm Calm -- 29.04 in983.4 mb 39.20 in995.7 mm 0.00 in0.0 mm 4.71 in119.6 mm
01:00 AM 36.0°F2.2°C 34.9°F1.6°C 96% Calm Calm -- 29.04 in983.4 mb 39.20 in995.7 mm 0.00 in0.0 mm 4.71 in119.6 mm
12:55 AM 36.0°F2.2°C 34.9°F1.6°C 96% Calm Calm -- 29.05 in983.7 mb 39.20 in995.7 mm 0.00 in0.0 mm 4.71 in119.6 mm
12:50 AM 36.1°F2.3°C 35.1°F1.7°C 96% Calm Calm -- 29.04 in983.4 mb 39.20 in995.7 mm 0.00 in0.0 mm 4.71 in119.6 mm
12:45 AM 36.0°F2.2°C 34.7°F1.5°C 95% Calm Calm -- 29.05 in983.7 mb 39.20 in995.7 mm 0.00 in0.0 mm 4.71 in119.6 mm
12:40 AM 36.0°F2.2°C 34.7°F1.5°C 95% Calm Calm -- 29.05 in983.7 mb 39.20 in995.7 mm 0.00 in0.0 mm 4.71 in119.6 mm
12:35 AM 36.0°F2.2°C 34.7°F1.5°C 95% Calm Calm -- 29.05 in983.7 mb 39.20 in995.7 mm 40.08 in1018.0 mm 4.71 in119.6 mm
12:30 AM 36.0°F2.2°C 34.7°F1.5°C 95% Calm Calm -- 29.05 in983.7 mb 35.86 in910.8 mm 10.68 in271.3 mm 4.71 in119.6 mm
12:25 AM 36.0°F2.2°C 34.7°F1.5°C 95% Calm Calm -- 29.05 in983.7 mb 34.97 in888.2 mm 46.80 in1188.7 mm 4.71 in119.6 mm
12:20 AM 35.8°F2.1°C 34.5°F1.4°C 95% Calm Calm -- 29.05 in983.7 mb 31.07 in789.2 mm 3.96 in100.6 mm 4.71 in119.6 mm
12:15 AM 35.6°F2.0°C 34.3°F1.3°C 95% Calm Calm -- 29.05 in983.7 mb 30.74 in780.8 mm 8.16 in207.3 mm 4.71 in119.6 mm
12:10 AM 35.8°F2.1°C 34.5°F1.4°C 95% Calm Calm -- 29.06 in984.1 mb 30.06 in763.5 mm 0.00 in0.0 mm 4.71 in119.6 mm
12:05 AM 36.0°F2.2°C 34.7°F1.5°C 95% Calm Calm -- 29.05 in983.7 mb 30.43 in772.9 mm 12.00 in304.8 mm 4.71 in119.6 mm
12:00 AM 35.8°F2.1°C 34.2°F1.2°C 94% Calm Calm -- 29.05 in983.7 mb 29.43 in747.5 mm 0.00 in0.0 mm 4.71 in119.6 mm